SCCY

Details ICAO SCCY (GXQ)
Name TENIENTE VIDAL
Region Chile
Timezone America/Santiago (UTC-4.0)
Plans Departing 9
Arriving 7
Stats Elevation 1,020 ft / 311 m (AMSL)
Location -45.594200° -72.106133°
Runways 1
Magnetic Variation 9.999° E
Sunrise 2018-05-23 12:11:25 UTC / 2018-05-23 08:11:25 Local
Sunset 2018-05-23 21:21:49 UTC / 2018-05-23 17:21:49 Local
Advertisement - Login to hide

Runways

ID Width Length Bearing (true) Bearing (mag) Surface Threshold Offset Overrun Length
03 98 ft / 30 m 5,041 ft / 1,536 m 45.47° 35.47° Asphalt 0 ft / 0 m 115 ft / 35 m
21 98 ft / 30 m 5,041 ft / 1,536 m 225.46° 215.46° Asphalt 0 ft / 0 m 100 ft / 30 m

Map

Weather


0- 5 10 15 20 25 30 35+ Temperature / ° C

Clouds and Precipitation
Forecast for 2018-05-23 18:00 UTC. Updated 9 minutes ago

Ground ~20,000 ft ~40,000 ft Winds

METAR

SCCY 231700Z 06005KT 9999 SCT010 OVC030 09/07 Q1018

TAF

TAF SCCY 231036Z 2312/2324 03005KT 9999 SCT020 BKN030 TN08/2312Z TX11/2318Z BECMG 2314/2316 25005KT TEMPO 2314/2319 7000 -RA

Frequencies

Tower 126.70 MHz AFIS
Warning: Do not use this data for real-world aviation or navigation. No guarantee of current accuracy is given.